createdAt,value
2022-10-10T00:01:27.674Z,80.69
2022-10-10T00:03:54.999Z,80.80
2022-10-10T00:06:22.890Z,80.88
2022-10-10T00:08:50.460Z,80.94
2022-10-10T00:11:19.924Z,81.14
2022-10-10T00:13:47.262Z,81.34
2022-10-10T00:16:15.233Z,81.38
2022-10-10T00:18:42.782Z,81.32
2022-10-10T00:21:10.470Z,81.38
2022-10-10T00:23:38.116Z,81.55
2022-10-10T00:26:08.790Z,81.61
2022-10-10T00:28:39.078Z,81.62
2022-10-10T00:31:08.439Z,81.67
2022-10-10T00:33:36.449Z,81.75
2022-10-10T00:36:04.348Z,81.73
2022-10-10T00:38:32.525Z,81.74
2022-10-10T00:40:59.313Z,81.73
2022-10-10T00:43:27.618Z,81.72
2022-10-10T00:45:54.818Z,81.73
2022-10-10T00:48:32.588Z,81.79
2022-10-10T00:51:14.077Z,81.80
2022-10-10T00:53:51.608Z,81.83
2022-10-10T00:56:27.764Z,81.92
2022-10-10T00:58:58.877Z,81.93
2022-10-10T01:01:25.625Z,82.01
2022-10-10T01:03:57.546Z,82.24
2022-10-10T01:06:24.098Z,82.36
2022-10-10T01:08:50.740Z,82.47
2022-10-10T01:12:16.853Z,82.76
2022-10-10T01:15:14.502Z,83.09
2022-10-10T01:17:49.322Z,83.20
2022-10-10T01:20:49.588Z,83.13
2022-10-10T01:23:45.989Z,83.17
2022-10-10T01:26:51.482Z,83.21
2022-10-10T01:29:53.954Z,83.28
2022-10-10T01:32:33.097Z,83.39
2022-10-10T01:35:53.800Z,83.37
2022-10-10T01:38:41.914Z,83.40
2022-10-10T01:41:30.573Z,83.37
2022-10-10T01:43:58.784Z,83.28
2022-10-10T01:46:26.135Z,83.31
2022-10-10T01:48:56.996Z,83.44
2022-10-10T01:51:55.547Z,83.38
2022-10-10T01:54:53.375Z,83.27
2022-10-10T01:57:31.779Z,83.09
2022-10-10T02:00:10.774Z,83.02
2022-10-10T02:02:53.948Z,82.99
2022-10-10T02:05:53.094Z,82.90
2022-10-10T02:08:33.915Z,82.89
2022-10-10T02:11:05.828Z,82.90
2022-10-10T02:13:56.565Z,82.85
2022-10-10T02:16:32.508Z,82.68
2022-10-10T02:19:02.401Z,82.63
2022-10-10T02:21:30.043Z,82.62
2022-10-10T02:24:04.227Z,82.60
2022-10-10T02:26:32.261Z,82.60
2022-10-10T02:29:07.121Z,82.59
2022-10-10T02:32:02.612Z,82.69
2022-10-10T02:34:36.922Z,82.94
2022-10-10T02:37:10.773Z,83.09
2022-10-10T02:39:43.228Z,83.00
2022-10-10T02:42:12.499Z,82.94
2022-10-10T02:44:39.691Z,82.85
2022-10-10T02:47:06.364Z,83.04
2022-10-10T02:49:36.582Z,83.21
2022-10-10T02:52:04.333Z,83.20
2022-10-10T02:54:31.243Z,83.21
2022-10-10T02:56:57.856Z,83.20
2022-10-10T02:59:24.452Z,83.31
2022-10-10T03:01:51.253Z,83.24
2022-10-10T03:04:17.954Z,83.14
2022-10-10T03:06:44.658Z,83.10
2022-10-10T03:09:11.303Z,83.08
2022-10-10T03:11:37.988Z,83.10
2022-10-10T03:14:04.536Z,83.12
2022-10-10T03:16:31.319Z,83.14
2022-10-10T03:18:57.844Z,83.18
2022-10-10T03:21:24.439Z,83.20
2022-10-10T03:23:51.008Z,83.25
2022-10-10T03:26:17.616Z,83.33
2022-10-10T03:28:44.896Z,83.39
2022-10-10T03:31:11.576Z,83.30
2022-10-10T03:33:38.292Z,83.31
2022-10-10T03:36:06.172Z,83.30
2022-10-10T03:38:33.059Z,83.30
2022-10-10T03:40:59.756Z,83.33
2022-10-10T03:43:26.308Z,83.40
2022-10-10T03:45:52.926Z,83.47
2022-10-10T03:48:19.491Z,83.54
2022-10-10T03:50:46.119Z,83.60
2022-10-10T03:53:12.698Z,83.67
2022-10-10T03:55:41.818Z,83.78
2022-10-10T03:58:09.859Z,83.87
2022-10-10T04:00:36.606Z,83.86
2022-10-10T04:03:06.677Z,83.80
2022-10-10T04:05:38.770Z,83.81
2022-10-10T04:08:05.892Z,83.88
2022-10-10T04:10:32.518Z,83.81
2022-10-10T04:12:59.055Z,83.79
2022-10-10T04:15:25.745Z,83.76
2022-10-10T04:17:52.482Z,84.22
2022-10-10T04:20:19.702Z,84.20
2022-10-10T04:22:46.254Z,84.11
2022-10-10T04:25:12.851Z,84.06
2022-10-10T04:27:39.451Z,84.01
2022-10-10T04:30:07.424Z,83.87
2022-10-10T04:32:34.113Z,83.75
2022-10-10T04:35:00.749Z,83.65
2022-10-10T04:37:27.454Z,83.67
2022-10-10T04:39:53.991Z,83.70
2022-10-10T04:42:20.639Z,83.86
2022-10-10T04:44:47.235Z,83.85
2022-10-10T04:47:14.188Z,83.80
2022-10-10T04:49:42.046Z,83.89
2022-10-10T04:52:12.400Z,83.83
2022-10-10T04:54:39.726Z,83.76
2022-10-10T04:57:06.639Z,83.72
2022-10-10T04:59:33.501Z,83.82
2022-10-10T05:02:01.851Z,83.98
2022-10-10T05:04:28.797Z,83.96
2022-10-10T05:06:55.343Z,83.81
2022-10-10T05:09:22.044Z,83.66
2022-10-10T05:11:49.024Z,83.51
2022-10-10T05:14:15.674Z,83.40
2022-10-10T05:16:42.427Z,83.40
2022-10-10T05:19:09.112Z,83.35
2022-10-10T05:21:35.730Z,83.35
2022-10-10T05:24:02.981Z,83.36
2022-10-10T05:26:29.536Z,83.31
2022-10-10T05:28:56.126Z,83.36
2022-10-10T05:31:22.836Z,83.40
2022-10-10T05:33:49.437Z,83.40
2022-10-10T05:36:16.109Z,83.34
2022-10-10T05:38:42.926Z,83.32
2022-10-10T05:41:10.103Z,83.34
2022-10-10T05:43:36.848Z,83.37
2022-10-10T05:46:04.427Z,83.31
2022-10-10T05:48:31.330Z,83.37
2022-10-10T05:50:59.867Z,83.33
2022-10-10T05:53:29.688Z,83.28
2022-10-10T05:55:57.162Z,83.20
2022-10-10T05:58:23.879Z,83.17
2022-10-10T06:00:50.538Z,83.07
2022-10-10T06:03:17.863Z,83.02
2022-10-10T06:05:48.943Z,83.02
2022-10-10T06:08:15.800Z,82.95
2022-10-10T06:10:45.681Z,82.91
2022-10-10T06:13:20.313Z,82.83
2022-10-10T06:15:52.092Z,82.62
2022-10-10T06:18:19.014Z,82.42
2022-10-10T06:20:45.562Z,82.28
2022-10-10T06:23:15.186Z,81.98
2022-10-10T06:25:42.262Z,81.74
2022-10-10T06:28:11.136Z,81.61
2022-10-10T06:30:43.843Z,81.58
2022-10-10T06:33:12.840Z,81.29
2022-10-10T06:35:45.075Z,81.09
2022-10-10T06:38:12.935Z,80.84
2022-10-10T06:40:40.081Z,80.44
2022-10-10T06:43:11.821Z,80.08
2022-10-10T06:45:44.034Z,79.77
2022-10-10T06:48:12.743Z,79.42
2022-10-10T06:50:39.344Z,78.69
2022-10-10T06:53:06.416Z,78.28
2022-10-10T06:55:32.979Z,77.86
2022-10-10T06:57:59.579Z,77.56
2022-10-10T07:00:26.234Z,77.31
2022-10-10T07:02:53.243Z,77.13
2022-10-10T07:05:20.061Z,76.91
2022-10-10T07:07:46.650Z,76.69
2022-10-10T07:10:15.796Z,76.41
2022-10-10T07:12:45.015Z,76.22
2022-10-10T07:15:12.456Z,75.94
2022-10-10T07:17:39.350Z,75.68
2022-10-10T07:20:06.854Z,75.42
2022-10-10T07:22:33.692Z,75.19
2022-10-10T07:25:00.292Z,74.94
2022-10-10T07:27:27.259Z,74.78
2022-10-10T07:29:53.841Z,74.59
2022-10-10T07:32:20.463Z,74.33
2022-10-10T07:34:47.034Z,74.12
2022-10-10T07:37:13.539Z,73.94
2022-10-10T07:39:40.196Z,73.68
2022-10-10T07:42:06.758Z,73.50
2022-10-10T07:44:34.695Z,73.18
2022-10-10T07:47:01.853Z,72.97
2022-10-10T07:49:28.633Z,72.75
2022-10-10T07:51:58.844Z,72.51
2022-10-10T07:54:27.564Z,72.31
2022-10-10T07:56:54.054Z,71.85
2022-10-10T07:59:20.623Z,71.46
2022-10-10T08:01:47.585Z,71.14
2022-10-10T08:04:14.348Z,70.66
2022-10-10T08:06:40.977Z,70.39
2022-10-10T08:09:07.621Z,70.08
2022-10-10T08:11:34.128Z,69.72
2022-10-10T08:14:00.709Z,69.21
2022-10-10T08:16:27.508Z,68.89
2022-10-10T08:18:54.093Z,68.63
2022-10-10T08:21:20.898Z,68.12
2022-10-10T08:23:47.592Z,67.05
2022-10-10T08:26:16.517Z,67.50
2022-10-10T08:28:44.465Z,66.78
2022-10-10T08:31:21.004Z,66.19
2022-10-10T08:33:49.791Z,65.96
2022-10-10T08:36:23.389Z,65.49
2022-10-10T08:38:52.623Z,64.69
2022-10-10T08:41:47.492Z,63.84
2022-10-10T08:44:39.320Z,63.32
2022-10-10T08:47:10.364Z,62.28
2022-10-10T08:49:51.157Z,61.46
2022-10-10T08:52:57.775Z,60.32
2022-10-10T08:55:33.425Z,59.67
2022-10-10T08:58:12.695Z,59.63
2022-10-10T09:01:04.164Z,58.68
2022-10-10T09:03:39.732Z,57.13
2022-10-10T09:06:15.715Z,56.70
2022-10-10T09:09:05.683Z,56.54
2022-10-10T09:11:57.755Z,55.89
2022-10-10T09:14:44.543Z,56.10
2022-10-10T09:17:54.776Z,55.62
2022-10-10T09:20:30.842Z,55.20
2022-10-10T09:23:05.939Z,54.96
2022-10-10T09:25:41.826Z,54.16
2022-10-10T09:28:17.059Z,53.38
2022-10-10T09:30:53.136Z,53.30
2022-10-10T09:33:49.342Z,53.18
2022-10-10T09:36:23.826Z,52.79
2022-10-10T09:38:56.899Z,52.19
2022-10-10T09:41:39.562Z,52.42
2022-10-10T09:44:11.756Z,52.07
2022-10-10T09:46:38.672Z,51.49
2022-10-10T09:49:05.572Z,51.67
2022-10-10T09:51:33.238Z,51.59
2022-10-10T09:54:00.207Z,51.03
2022-10-10T09:56:42.940Z,51.10
2022-10-10T09:59:44.852Z,50.88
2022-10-10T10:02:19.678Z,50.59
2022-10-10T10:04:48.125Z,49.82
2022-10-10T10:07:26.218Z,50.53
2022-10-10T10:09:57.351Z,50.74
2022-10-10T10:12:31.987Z,49.96
2022-10-10T10:15:07.279Z,48.76
2022-10-10T10:17:33.964Z,47.33
2022-10-10T10:20:00.541Z,46.56
2022-10-10T10:22:39.351Z,46.93
2022-10-10T10:25:32.517Z,46.52
2022-10-10T10:28:11.426Z,46.03
2022-10-10T10:30:40.135Z,47.29
2022-10-10T10:33:38.555Z,47.41
2022-10-10T10:36:33.967Z,47.27
2022-10-10T10:39:37.832Z,46.90
2022-10-10T10:42:31.235Z,48.19
2022-10-10T10:45:24.230Z,48.00
2022-10-10T10:48:13.178Z,48.30
2022-10-10T10:50:51.080Z,47.91
2022-10-10T10:53:32.199Z,47.93
2022-10-10T10:56:29.743Z,47.69
2022-10-10T11:00:20.970Z,48.20
2022-10-10T11:02:55.399Z,48.60
2022-10-10T11:05:45.555Z,48.66
2022-10-10T11:08:49.075Z,48.74
2022-10-10T11:11:49.705Z,48.58
2022-10-10T11:15:01.259Z,48.76
2022-10-10T11:17:45.743Z,48.70
2022-10-10T11:20:33.055Z,48.78
2022-10-10T11:23:12.393Z,48.39
2022-10-10T11:25:55.627Z,48.80
2022-10-10T11:28:28.475Z,49.08
2022-10-10T11:31:02.140Z,49.58
2022-10-10T11:33:37.931Z,49.70
2022-10-10T11:36:17.567Z,48.85
2022-10-10T11:38:53.297Z,49.23
2022-10-10T11:41:39.206Z,49.50
2022-10-10T11:44:31.191Z,49.95
2022-10-10T11:47:13.695Z,50.77
2022-10-10T11:50:08.426Z,50.77
2022-10-10T11:52:53.308Z,50.47
2022-10-10T11:56:17.507Z,50.70
2022-10-10T11:58:48.998Z,50.60
2022-10-10T12:01:34.522Z,50.47
2022-10-10T12:04:01.111Z,49.68
2022-10-10T12:06:44.782Z,50.37
2022-10-10T12:09:19.910Z,50.60
2022-10-10T12:12:04.098Z,50.61
2022-10-10T12:14:33.365Z,51.07
2022-10-10T12:17:00.113Z,51.23
2022-10-10T12:19:29.107Z,51.33
2022-10-10T12:22:08.350Z,51.99
2022-10-10T12:24:58.211Z,52.05
2022-10-10T12:27:47.181Z,51.80
2022-10-10T12:30:22.564Z,51.64
2022-10-10T12:32:50.316Z,51.59
2022-10-10T12:35:42.421Z,51.47
2022-10-10T12:38:14.277Z,51.81
2022-10-10T12:41:12.346Z,51.56
2022-10-10T12:43:51.305Z,51.49
2022-10-10T12:46:32.855Z,51.33
2022-10-10T12:49:16.036Z,51.44
2022-10-10T12:51:45.113Z,51.35
2022-10-10T12:54:27.608Z,51.36
2022-10-10T12:57:13.930Z,51.29
2022-10-10T12:59:41.562Z,51.53
2022-10-10T13:02:21.816Z,51.86
2022-10-10T13:04:51.459Z,52.03
2022-10-10T13:07:22.151Z,52.14
2022-10-10T13:09:52.134Z,52.21
2022-10-10T13:12:31.071Z,52.34
2022-10-10T13:14:58.246Z,52.42
2022-10-10T13:17:37.199Z,52.56
2022-10-10T13:20:06.101Z,52.72
2022-10-10T13:22:36.323Z,52.80
2022-10-10T13:25:05.391Z,52.88
2022-10-10T13:27:35.399Z,52.91
2022-10-10T13:30:03.685Z,52.86
2022-10-10T13:32:35.622Z,53.38
2022-10-10T13:35:07.994Z,53.73
2022-10-10T13:37:35.354Z,53.68
2022-10-10T13:40:02.261Z,53.70
2022-10-10T13:42:34.470Z,53.88
2022-10-10T13:45:22.626Z,53.96
2022-10-10T13:48:02.986Z,53.99
2022-10-10T13:50:56.518Z,54.09
2022-10-10T13:53:29.575Z,54.17
2022-10-10T13:56:28.667Z,54.33
2022-10-10T13:58:58.951Z,54.39
2022-10-10T14:01:43.612Z,54.69
2022-10-10T14:04:13.269Z,54.89
2022-10-10T14:06:48.363Z,55.34
2022-10-10T14:09:24.985Z,55.30
2022-10-10T14:11:54.148Z,55.20
2022-10-10T14:14:26.625Z,55.34
2022-10-10T14:17:00.807Z,55.42
2022-10-10T14:19:28.107Z,55.55
2022-10-10T14:21:54.732Z,55.50
2022-10-10T14:24:21.400Z,55.62
2022-10-10T14:26:48.174Z,55.42
2022-10-10T14:29:17.256Z,55.40
2022-10-10T14:31:45.179Z,55.33
2022-10-10T14:34:13.278Z,55.15
2022-10-10T14:36:49.288Z,55.15
2022-10-10T14:39:18.370Z,55.41
2022-10-10T14:41:45.519Z,55.55
2022-10-10T14:44:12.789Z,55.99
2022-10-10T14:46:41.002Z,56.17
2022-10-10T14:49:16.163Z,55.97
2022-10-10T14:51:42.681Z,55.90
2022-10-10T14:54:11.929Z,55.73
2022-10-10T14:57:07.105Z,55.80
2022-10-10T14:59:45.991Z,55.89
2022-10-10T15:02:14.313Z,55.82
2022-10-10T15:04:40.950Z,55.81
2022-10-10T15:07:13.327Z,55.97
2022-10-10T15:09:47.437Z,55.87
2022-10-10T15:12:24.075Z,56.10
2022-10-10T15:14:50.649Z,56.54
2022-10-10T15:17:17.663Z,56.37
2022-10-10T15:19:44.255Z,56.26
2022-10-10T15:22:10.999Z,56.36
2022-10-10T15:24:37.603Z,56.64
2022-10-10T15:27:04.248Z,56.87
2022-10-10T15:29:31.580Z,57.11
2022-10-10T15:31:58.736Z,57.30
2022-10-10T15:34:25.425Z,57.21
2022-10-10T15:36:51.976Z,57.15
2022-10-10T15:39:18.793Z,57.00
2022-10-10T15:41:45.651Z,56.96
2022-10-10T15:44:17.164Z,56.99
2022-10-10T15:46:45.249Z,56.91
2022-10-10T15:49:13.579Z,57.08
2022-10-10T15:51:47.711Z,57.27
2022-10-10T15:54:15.556Z,57.30
2022-10-10T15:56:42.871Z,57.09
2022-10-10T15:59:13.794Z,57.28
2022-10-10T16:01:41.615Z,57.62
2022-10-10T16:04:09.018Z,57.87
2022-10-10T16:06:36.120Z,58.03
2022-10-10T16:09:27.552Z,58.08
2022-10-10T16:11:54.747Z,58.36
2022-10-10T16:14:21.523Z,58.59
2022-10-10T16:16:48.947Z,58.84
2022-10-10T16:19:15.628Z,59.12
2022-10-10T16:21:42.485Z,59.47
2022-10-10T16:24:10.496Z,59.55
2022-10-10T16:26:37.956Z,60.14
2022-10-10T16:29:09.235Z,60.50
2022-10-10T16:31:39.020Z,60.61
2022-10-10T16:34:07.640Z,60.87
2022-10-10T16:36:37.265Z,61.02
2022-10-10T16:39:04.915Z,61.13
2022-10-10T16:41:49.432Z,61.37
2022-10-10T16:44:17.528Z,61.47
2022-10-10T16:46:44.784Z,61.56
2022-10-10T16:49:13.231Z,61.73
2022-10-10T16:51:39.887Z,61.84
2022-10-10T16:54:07.475Z,62.10
2022-10-10T16:56:35.420Z,62.43
2022-10-10T16:59:03.050Z,62.59
2022-10-10T17:01:29.881Z,62.78
2022-10-10T17:03:59.519Z,62.98
2022-10-10T17:06:31.260Z,63.10
2022-10-10T17:09:02.458Z,63.43
2022-10-10T17:11:29.272Z,63.58
2022-10-10T17:13:55.971Z,63.79
2022-10-10T17:19:13.577Z,64.20
2022-10-10T17:21:40.233Z,64.36
2022-10-10T17:24:07.006Z,64.47
2022-10-10T17:26:33.693Z,64.69
2022-10-10T17:29:00.361Z,64.90
2022-10-10T17:31:27.746Z,65.15
2022-10-10T17:33:56.807Z,65.34
2022-10-10T17:36:26.340Z,65.60
2022-10-10T17:38:56.241Z,65.76
2022-10-10T17:41:23.872Z,65.95
2022-10-10T17:43:50.934Z,66.19
2022-10-10T17:46:34.265Z,66.28
2022-10-10T17:49:03.796Z,66.45
2022-10-10T17:51:30.595Z,66.64
2022-10-10T17:54:01.566Z,66.97
2022-10-10T17:56:28.785Z,67.35
2022-10-10T17:58:55.661Z,67.76
2022-10-10T18:01:22.437Z,68.10
2022-10-10T18:03:49.341Z,68.32
2022-10-10T18:06:20.656Z,68.43
2022-10-10T18:08:51.799Z,68.74
2022-10-10T18:11:25.319Z,69.10
2022-10-10T18:13:52.669Z,69.30
2022-10-10T18:16:22.860Z,69.31
2022-10-10T18:18:52.037Z,69.31
2022-10-10T18:21:23.977Z,69.48
2022-10-10T18:23:51.608Z,69.70
2022-10-10T18:26:29.745Z,69.86
2022-10-10T18:28:58.258Z,69.87
2022-10-10T18:31:33.305Z,69.89
2022-10-10T18:34:01.790Z,69.98
2022-10-10T18:36:31.733Z,70.20
2022-10-10T18:39:00.750Z,70.39
2022-10-10T18:41:34.357Z,70.59
2022-10-10T18:44:04.020Z,70.72
2022-10-10T18:46:31.092Z,70.93
2022-10-10T18:48:57.795Z,71.10
2022-10-10T18:51:29.323Z,71.30
2022-10-10T18:54:08.562Z,71.42
2022-10-10T18:56:37.946Z,71.52
2022-10-10T18:59:07.948Z,71.66
2022-10-10T19:01:36.651Z,71.81
2022-10-10T19:04:06.567Z,71.97
2022-10-10T19:06:33.698Z,72.24
2022-10-10T19:09:05.895Z,72.48
2022-10-10T19:11:35.910Z,72.64
2022-10-10T19:14:05.041Z,72.77
2022-10-10T19:16:32.626Z,72.89
2022-10-10T19:19:02.068Z,72.94
2022-10-10T19:21:33.219Z,73.02
2022-10-10T19:24:01.473Z,73.21
2022-10-10T19:26:33.325Z,73.34
2022-10-10T19:29:07.078Z,73.46
2022-10-10T19:31:36.298Z,73.58
2022-10-10T19:34:06.376Z,73.73
2022-10-10T19:36:37.233Z,73.83
2022-10-10T19:39:09.542Z,74.02
2022-10-10T19:41:36.285Z,74.17
2022-10-10T19:44:05.500Z,74.29
2022-10-10T19:46:36.719Z,74.44
2022-10-10T19:49:04.172Z,74.57
2022-10-10T19:51:30.792Z,74.68
2022-10-10T19:53:57.613Z,74.72
2022-10-10T19:56:26.441Z,74.80
2022-10-10T19:58:59.905Z,74.91
2022-10-10T20:01:30.415Z,74.99
2022-10-10T20:03:58.359Z,75.09
2022-10-10T20:06:25.763Z,75.18
2022-10-10T20:08:52.296Z,75.27
2022-10-10T20:11:20.332Z,75.36
2022-10-10T20:13:49.514Z,75.48
2022-10-10T20:16:16.694Z,75.56
2022-10-10T20:18:43.615Z,75.65
2022-10-10T20:21:24.018Z,75.77
2022-10-10T20:23:51.002Z,75.88
2022-10-10T20:26:21.529Z,76.03
2022-10-10T20:28:50.116Z,76.14
2022-10-10T20:31:22.494Z,76.26
2022-10-10T20:33:52.170Z,76.36
2022-10-10T20:36:20.471Z,76.49
2022-10-10T20:38:58.416Z,76.62
2022-10-10T20:41:28.049Z,76.79
2022-10-10T20:44:00.600Z,76.91
2022-10-10T20:46:30.644Z,76.94
2022-10-10T20:48:59.440Z,77.01
2022-10-10T20:51:27.910Z,77.09
2022-10-10T20:54:01.959Z,77.23
2022-10-10T20:56:30.502Z,77.32
2022-10-10T20:58:57.222Z,77.41
2022-10-10T21:01:26.900Z,77.49
2022-10-10T21:03:54.565Z,77.44
2022-10-10T21:06:25.642Z,77.59
2022-10-10T21:08:54.013Z,77.65
2022-10-10T21:11:22.296Z,77.71
2022-10-10T21:13:57.071Z,77.79
2022-10-10T21:16:31.363Z,77.87
2022-10-10T21:18:58.844Z,77.92
2022-10-10T21:21:32.540Z,77.97
2022-10-10T21:24:01.019Z,78.04
2022-10-10T21:26:29.737Z,78.06
2022-10-10T21:28:57.875Z,78.10
2022-10-10T21:31:31.849Z,78.13
2022-10-10T21:34:02.194Z,78.20
2022-10-10T21:36:29.841Z,78.27
2022-10-10T21:38:57.132Z,78.38
2022-10-10T21:41:24.772Z,78.44
2022-10-10T21:43:57.422Z,78.56
2022-10-10T21:46:33.595Z,78.69
2022-10-10T21:49:06.232Z,78.85
2022-10-10T21:51:59.151Z,78.93
2022-10-10T21:54:25.721Z,79.09
2022-10-10T21:56:52.327Z,79.17
2022-10-10T21:59:19.051Z,79.26
2022-10-10T22:01:45.631Z,79.38
2022-10-10T22:04:12.178Z,79.40
2022-10-10T22:06:38.892Z,79.46
2022-10-10T22:09:05.558Z,79.49
2022-10-10T22:11:34.487Z,79.56
2022-10-10T22:14:02.690Z,79.65
2022-10-10T22:16:31.793Z,79.79
2022-10-10T22:19:00.005Z,79.89
2022-10-10T22:21:31.472Z,79.93
2022-10-10T22:24:01.871Z,79.95
2022-10-10T22:26:29.528Z,80.06
2022-10-10T22:28:56.299Z,80.14
2022-10-10T22:31:23.628Z,80.25
2022-10-10T22:33:50.338Z,80.39
2022-10-10T22:36:17.085Z,80.38
2022-10-10T22:38:45.251Z,80.39
2022-10-10T22:41:13.419Z,80.41
2022-10-10T22:43:40.349Z,80.45
2022-10-10T22:46:08.155Z,80.50
2022-10-10T22:48:35.537Z,80.55
2022-10-10T22:51:07.350Z,80.61
2022-10-10T22:53:34.572Z,80.70
2022-10-10T22:56:01.918Z,80.73
2022-10-10T22:58:28.683Z,80.79
2022-10-10T23:00:55.515Z,80.88
2022-10-10T23:03:22.131Z,80.84
2022-10-10T23:05:48.688Z,80.81
2022-10-10T23:08:15.777Z,80.80
2022-10-10T23:10:44.510Z,80.87
2022-10-10T23:13:11.721Z,80.82
2022-10-10T23:15:38.682Z,80.79
2022-10-10T23:18:05.510Z,80.74
2022-10-10T23:20:32.467Z,80.74
2022-10-10T23:22:59.081Z,80.77
2022-10-10T23:25:25.764Z,80.82
2022-10-10T23:27:52.334Z,80.89
2022-10-10T23:30:20.984Z,80.93
2022-10-10T23:32:47.787Z,80.98
2022-10-10T23:35:14.386Z,81.04
2022-10-10T23:37:41.880Z,81.16
2022-10-10T23:40:09.187Z,81.19
2022-10-10T23:42:35.878Z,81.19
2022-10-10T23:45:02.619Z,81.20
2022-10-10T23:47:29.346Z,81.20
2022-10-10T23:49:55.945Z,81.20
2022-10-10T23:52:22.649Z,81.23
2022-10-10T23:54:49.274Z,81.26
2022-10-10T23:57:15.971Z,81.28
2022-10-10T23:59:42.638Z,81.28
